Time;durP1;ratioP1;P1;durP2;ratioP2;P2;SDS_P1;SDS_P2;PMS_P1;PMS_P2;Temp;Humidity;BMP_temperature;BMP_pressure;BME280_temperature;BME280_humidity;BME280_pressure;Samples;Min_cycle;Max_cycle;Signal;HPM_P1;HPM_P2
2022/04/09 00:00:58;;;;;;;1.30;0.50;;;12.00;61.50;;;8.90;68.23;93783.50;5053306;28;20438;-47
2022/04/09 00:03:26;;;;;;;1.73;0.40;;;11.90;61.30;;;8.89;68.78;93827.88;5051927;28;20028;-51
2022/04/09 00:05:52;;;;;;;0.60;0.30;;;12.00;61.20;;;8.88;68.05;93836.16;5051506;28;20029;-48
2022/04/09 00:08:18;;;;;;;1.27;0.35;;;12.00;60.50;;;8.81;67.88;93841.84;5053250;28;20036;-52
2022/04/09 00:10:43;;;;;;;0.43;0.30;;;12.00;60.40;;;8.75;68.50;93837.72;5053145;28;20025;-50
2022/04/09 00:13:09;;;;;;;0.22;0.22;;;12.10;60.20;;;8.70;68.69;93829.84;5052756;28;20112;-49
2022/04/09 00:15:35;;;;;;;3.22;0.65;;;12.10;60.10;;;8.63;68.73;93835.56;5051648;28;20037;-48
2022/04/09 00:18:01;;;;;;;1.27;0.43;;;12.10;59.80;;;8.59;68.50;93834.56;5051825;28;20036;-51
2022/04/09 00:20:29;;;;;;;1.75;0.30;;;12.10;59.50;;;8.59;68.80;93845.19;5043508;28;20030;-49
2022/04/09 00:23:04;;;;;;;1.45;0.30;;;12.10;59.80;;;8.54;69.41;93855.88;5031636;28;20033;-50
2022/04/09 00:25:33;;;;;;;0.30;0.30;;;12.10;59.90;;;8.50;69.46;93865.53;5032607;28;20104;-49
2022/04/09 00:27:58;;;;;;;0.47;0.40;;;12.10;60.00;;;8.48;69.62;93878.28;5032602;28;20029;-50
2022/04/09 00:30:33;;;;;;;3.17;0.47;;;12.00;59.80;;;8.51;70.89;93869.75;5032776;28;20029;-48
2022/04/09 00:32:59;;;;;;;0.77;0.40;;;12.00;60.20;;;8.41;71.10;93872.56;5028088;28;20040;-47
2022/04/09 00:35:33;;;;;;;0.35;0.22;;;12.00;60.90;;;8.31;71.80;93892.88;5021183;28;20022;-48
2022/04/09 00:38:05;;;;;;;0.90;0.30;;;11.90;61.30;;;8.29;72.29;93920.75;5019921;28;20021;-48
2022/04/09 00:40:31;;;;;;;0.88;0.43;;;11.80;61.80;;;8.23;72.84;93919.25;5033070;28;20029;-51
2022/04/09 00:43:04;;;;;;;0.45;0.30;;;11.70;62.00;;;8.14;74.76;93929.72;5031323;28;20036;-50
2022/04/09 00:45:30;;;;;;;;;;;11.60;62.60;;;7.68;78.13;93988.72;5032446;28;20049;-55
2022/04/09 00:47:56;;;;;;;0.47;0.20;;;11.50;63.50;;;6.82;79.32;93982.50;5027858;28;20347;-53
2022/04/09 00:50:22;;;;;;;0.30;0.30;;;11.40;63.70;;;6.55;80.72;94020.03;5010315;28;20029;-54
2022/04/09 00:52:52;;;;;;;0.75;0.20;;;11.20;63.70;;;6.16;81.57;94021.66;5044425;23;20092;-56
2022/04/09 00:58:15;;;;;;;1.23;0.30;;;10.70;64.90;;;5.89;83.63;94042.41;5022288;28;20045;-56
2022/04/09 01:00:47;;;;;;;0.20;0.20;;;10.50;65.60;;;5.75;83.84;94060.69;5033126;28;20030;-54
2022/04/09 01:03:19;;;;;;;0.90;0.30;;;10.30;66.60;;;5.74;84.99;94077.63;5029970;28;20032;-54
2022/04/09 01:05:48;;;;;;;0.40;0.20;;;10.10;66.90;;;5.67;85.48;94080.56;5052957;28;20029;-56
2022/04/09 01:08:15;;;;;;;0.70;0.30;;;10.00;67.70;;;5.64;85.46;94085.56;5052710;28;20116;-53
2022/04/09 21:39:43;;;;;;;3.03;1.63;;;3.30;69.00;;;1.41;81.30;95578.53;5120214;27;20147;-51
2022/04/09 21:42:09;;;;;;;2.08;1.88;;;2.70;69.30;;;1.50;81.66;95588.59;5054996;28;20060;-50
2022/04/09 21:44:35;;;;;;;3.35;2.10;;;3.10;68.30;;;1.52;81.35;95588.41;5089642;28;20111;-49
2022/04/09 21:47:15;;;;;;;4.40;2.20;;;3.60;66.60;;;1.52;81.32;95586.59;5088209;28;20027;-51
2022/04/09 21:49:40;;;;;;;5.03;1.92;;;4.10;65.20;;;1.54;81.10;95589.81;5088246;28;20025;-52
2022/04/09 21:52:09;;;;;;;3.92;2.20;;;4.50;63.70;;;1.53;81.80;95592.63;5086580;28;20033;-52
2022/04/09 21:54:35;;;;;;;4.43;1.85;;;4.80;62.70;;;1.53;81.11;95590.00;5101859;28;20027;-52
2022/04/09 21:57:07;;;;;;;3.10;2.13;;;5.00;61.80;;;1.50;80.81;95593.06;5109649;28;20099;-54
2022/04/09 21:59:33;;;;;;;3.83;2.10;;;5.20;61.20;;;1.53;80.66;95598.69;5078226;28;20502;-50
2022/04/09 22:02:05;;;;;;;2.85;1.98;;;5.30;60.50;;;1.54;80.94;95602.16;5109416;28;20039;-52
2022/04/09 22:04:33;;;;;;;5.05;2.20;;;5.40;60.30;;;1.52;81.43;95604.16;5109418;28;20367;-54
2022/04/09 22:07:06;;;;;;;3.08;2.03;;;5.40;59.90;;;1.54;82.05;95607.41;5090441;28;20026;-50
2022/04/09 22:09:32;;;;;;;5.63;2.50;;;5.50;59.80;;;1.57;81.89;95618.28;5070813;28;20032;-51
2022/04/09 22:11:58;;;;;;;3.63;2.03;;;5.50;59.50;;;1.59;80.98;95613.63;5075954;28;20063;-52
2022/04/09 22:14:32;;;;;;;3.20;2.13;;;5.60;59.50;;;1.59;81.09;95610.19;5104220;28;20498;-50
2022/04/09 22:16:59;;;;;;;3.15;2.13;;;5.70;59.40;;;1.60;81.75;95623.13;5109332;28;20122;-51
2022/04/09 22:19:36;;;;;;;2.83;1.92;;;5.70;59.20;;;1.59;81.40;95618.06;5109170;28;20062;-50
2022/04/09 22:22:02;;;;;;;3.85;2.13;;;5.70;59.30;;;1.58;80.96;95625.13;5079611;28;20024;-53
2022/04/09 22:24:28;;;;;;;2.55;1.83;;;5.70;59.10;;;1.57;80.49;95625.38;5088610;28;20505;-54
2022/04/09 22:27:03;;;;;;;2.35;1.90;;;5.70;59.00;;;1.54;81.03;95623.16;5088768;28;20111;-48
2022/04/09 22:29:38;;;;;;;2.60;1.80;;;5.80;59.10;;;1.56;81.69;95628.97;5088645;28;20032;-51
2022/04/09 22:32:04;;;;;;;2.25;1.95;;;5.80;59.20;;;1.54;81.63;95628.41;5088685;28;20028;-50
2022/04/09 22:34:30;;;;;;;2.38;2.10;;;5.80;59.10;;;1.58;81.70;95637.47;5074361;28;20028;-53
2022/04/09 22:36:56;;;;;;;4.30;2.08;;;5.90;59.10;;;1.57;81.67;95641.91;5084301;28;20020;-52
2022/04/09 22:39:27;;;;;;;3.05;2.10;;;5.90;59.20;;;1.58;81.62;95640.09;5108585;28;20039;-49
2022/04/09 22:41:53;;;;;;;3.00;2.70;;;5.90;59.40;;;1.59;81.58;95637.25;5090470;28;20426;-52
2022/04/09 22:44:25;;;;;;;5.50;2.20;;;5.90;59.00;;;1.58;81.28;95646.16;5091095;28;20066;-53
2022/04/09 22:46:54;;;;;;;2.90;2.33;;;5.90;59.10;;;1.57;81.20;95643.75;5108792;28;20035;-49
2022/04/09 22:49:19;;;;;;;3.72;2.58;;;5.90;59.10;;;1.56;81.30;95645.53;5105385;28;20050;-53
2022/04/09 22:51:48;;;;;;;3.95;2.75;;;5.90;59.10;;;1.54;81.29;95638.91;5095146;28;20114;-54
2022/04/09 22:54:16;;;;;;;4.88;2.60;;;5.90;59.10;;;1.55;81.98;95654.44;5067317;28;20035;-51
2022/04/09 22:56:42;;;;;;;4.35;2.60;;;5.90;59.10;;;1.56;81.68;95650.78;5070089;28;20028;-50
2022/04/09 22:59:08;;;;;;;4.53;2.88;;;5.90;59.20;;;1.58;82.31;95655.84;5074675;28;20036;-52
2022/04/09 23:01:33;;;;;;;4.03;2.70;;;5.90;59.20;;;1.58;81.76;95659.28;5091145;28;20216;-54
2022/04/09 23:03:59;;;;;;;3.28;2.60;;;6.00;59.30;;;1.58;81.48;95654.03;5094822;28;20024;-53
2022/04/09 23:06:25;;;;;;;2.67;2.13;;;6.00;59.30;;;1.60;81.67;95661.72;5095149;28;20060;-52
2022/04/09 23:08:50;;;;;;;5.10;2.47;;;5.90;59.30;;;1.61;81.36;95655.44;5074312;28;20495;-52
2022/04/09 23:11:25;;;;;;;4.82;2.55;;;5.90;59.40;;;1.60;81.29;95661.72;5056795;28;20539;-49
2022/04/09 23:13:54;;;;;;;3.85;2.63;;;5.90;59.50;;;1.58;81.23;95666.34;5071588;28;20021;-51
2022/04/09 23:16:20;;;;;;;4.45;2.35;;;5.90;59.40;;;1.56;81.75;95677.03;5085367;28;20032;-53
2022/04/09 23:18:48;;;;;;;6.20;2.90;;;5.90;59.40;;;1.54;82.47;95670.41;5074439;28;20029;-50
2022/04/09 23:21:16;;;;;;;5.28;3.08;;;5.90;59.40;;;1.56;82.54;95679.66;5074580;28;20029;-55
2022/04/09 23:23:44;;;;;;;4.30;2.80;;;5.90;59.50;;;1.58;83.67;95682.09;5074562;28;20074;-50
2022/04/09 23:26:10;;;;;;;3.38;2.75;;;5.90;59.70;;;1.56;84.20;95677.03;5094660;28;20024;-50
2022/04/09 23:28:36;;;;;;;3.60;2.97;;;5.90;59.70;;;1.58;84.19;95679.47;5059787;28;20073;-51
2022/04/09 23:31:05;;;;;;;6.57;3.05;;;5.90;59.80;;;1.60;84.20;95680.91;5076402;28;20032;-51
2022/04/09 23:33:30;;;;;;;5.90;2.97;;;5.90;59.90;;;1.60;84.21;95675.63;5059736;28;20071;-52
2022/04/09 23:35:56;;;;;;;6.07;3.00;;;5.90;60.00;;;1.60;84.24;95686.16;5066850;28;20056;-52
2022/04/09 23:38:31;;;;;;;4.00;2.78;;;6.00;60.10;;;1.64;84.06;95688.38;5085767;28;20044;-51
2022/04/09 23:40:57;;;;;;;5.90;3.13;;;6.00;60.30;;;1.67;83.83;95686.13;5055784;28;20056;-51
2022/04/09 23:43:23;;;;;;;4.07;2.83;;;6.00;60.10;;;1.69;84.00;95693.78;5073608;28;20051;-51
2022/04/09 23:45:51;;;;;;;5.15;3.00;;;6.00;60.10;;;1.70;84.32;95690.16;5094182;28;20078;-51
2022/04/09 23:48:17;;;;;;;3.78;3.00;;;6.10;60.30;;;1.73;84.52;95692.38;5093908;28;20428;-51
2022/04/09 23:50:46;;;;;;;5.10;3.28;;;6.10;60.30;;;1.76;84.61;95691.97;5064927;28;20032;-57
2022/04/09 23:53:14;;;;;;;5.28;2.97;;;6.20;60.50;;;1.78;84.87;95698.59;5073910;28;20062;-56
2022/04/09 23:55:39;;;;;;;6.78;3.70;;;6.20;60.60;;;1.80;84.57;95696.59;5073914;28;20024;-53
2022/04/09 23:58:09;;;;;;;3.65;2.88;;;6.20;60.70;;;1.82;84.38;95702.44;5057440;28;20566;-53
